Time;durP1;ratioP1;P1;durP2;ratioP2;P2;SDS_P1;SDS_P2;PMS_P1;PMS_P2;Temp;Humidity;BMP_temperature;BMP_pressure;BME280_temperature;BME280_humidity;BME280_pressure;Samples;Min_cycle;Max_cycle;Signal;HPM_P1;HPM_P2
2023/10/23 00:01:23;;;;;;;6.23;4.60;;;;;;;12.77;100.00;101145.66;5227693;28;20032;-79
2023/10/23 00:03:54;;;;;;;7.10;4.30;;;;;;;12.59;100.00;101126.63;5228915;28;20173;-79
2023/10/23 00:06:25;;;;;;;5.40;4.13;;;;;;;12.69;100.00;101147.91;5228208;28;20030;-79
2023/10/23 00:08:57;;;;;;;10.13;4.43;;;;;;;12.82;100.00;101148.81;5228537;28;20021;-79
2023/10/23 00:11:30;;;;;;;7.10;4.57;;;;;;;12.85;100.00;101144.28;5228007;28;20098;-78
2023/10/23 00:14:02;;;;;;;7.03;4.43;;;;;;;12.67;100.00;101136.66;5227690;28;20064;-78
2023/10/23 00:16:33;;;;;;;9.40;4.63;;;;;;;12.43;100.00;101114.47;5227126;28;20477;-78
2023/10/23 00:19:05;;;;;;;9.37;5.43;;;;;;;12.48;100.00;101116.81;5230029;28;20623;-78
2023/10/23 00:21:36;;;;;;;5.83;4.40;;;;;;;12.67;100.00;101140.13;5237492;28;20075;-77
2023/10/23 00:24:08;;;;;;;7.47;4.47;;;;;;;12.66;100.00;101125.31;5237054;28;20022;-78
2023/10/23 00:26:39;;;;;;;8.37;4.10;;;;;;;12.48;100.00;101124.69;5235899;28;20061;-78
2023/10/23 00:29:10;;;;;;;7.57;4.03;;;;;;;12.53;100.00;101138.38;5235651;28;20104;-78
2023/10/23 00:31:42;;;;;;;7.67;4.23;;;;;;;12.53;100.00;101133.13;5235015;28;20116;-78
2023/10/23 00:34:14;;;;;;;7.73;4.23;;;;;;;12.61;100.00;101156.28;5229123;28;20025;-78
2023/10/23 00:36:45;;;;;;;6.47;4.20;;;;;;;12.65;100.00;101165.66;5226126;28;20325;-78
2023/10/23 00:39:16;;;;;;;6.30;4.17;;;;;;;12.39;100.00;101133.97;5228783;28;20034;-78
2023/10/23 00:41:48;;;;;;;7.33;4.10;;;;;;;12.40;100.00;101140.09;5225629;28;20048;-78
2023/10/23 00:44:19;;;;;;;8.10;4.47;;;;;;;12.28;100.00;101139.09;5225640;28;20432;-78
2023/10/23 00:46:50;;;;;;;9.20;4.40;;;;;;;12.31;100.00;101152.88;5227957;28;20033;-78
2023/10/23 00:49:22;;;;;;;6.93;4.07;;;;;;;12.49;100.00;101157.06;5226919;28;20025;-78
2023/10/23 00:51:54;;;;;;;8.33;4.20;;;;;;;12.25;100.00;101148.00;5243158;28;20025;-78
2023/10/23 00:54:26;;;;;;;7.23;3.70;;;;;;;12.26;100.00;101154.09;5227873;28;20458;-79
2023/10/23 00:56:58;;;;;;;7.23;4.70;;;;;;;12.45;100.00;101177.41;5225254;28;20028;-79
2023/10/23 00:59:30;;;;;;;6.67;3.93;;;;;;;12.28;100.00;101147.81;5227347;28;20374;-79
2023/10/23 01:02:02;;;;;;;6.33;4.17;;;;;;;12.32;100.00;101158.97;5225356;28;20025;-79
2023/10/23 01:04:33;;;;;;;8.80;4.73;;;;;;;12.23;100.00;101144.63;5207660;28;20038;-79
2023/10/23 01:07:05;;;;;;;7.27;3.87;;;;;;;12.08;100.00;101136.72;5205757;28;20048;-79
2023/10/23 01:09:36;;;;;;;4.73;3.80;;;;;;;12.25;100.00;101155.88;5206663;28;20141;-79
2023/10/23 01:12:07;;;;;;;7.00;3.90;;;;;;;12.25;100.00;101152.41;5204136;28;20580;-79
2023/10/23 01:14:39;;;;;;;8.00;4.10;;;;;;;12.07;100.00;101155.19;5206832;28;20029;-79
2023/10/23 01:17:10;;;;;;;5.70;4.07;;;;;;;12.17;100.00;101171.25;5205254;28;20029;-79
2023/10/23 01:19:42;;;;;;;5.93;4.17;;;;;;;11.92;100.00;101149.94;5220675;28;20136;-79
2023/10/23 01:22:13;;;;;;;10.30;4.33;;;;;;;12.09;100.00;101151.59;5224981;28;20032;-79
2023/10/23 01:24:48;;;;;;;7.50;4.10;;;;;;;11.96;100.00;101133.06;5226959;28;20138;-79
2023/10/23 01:27:20;;;;;;;7.03;4.67;;;;;;;11.91;100.00;101153.50;5226709;28;20167;-79
2023/10/23 01:29:51;;;;;;;6.00;3.83;;;;;;;12.04;100.00;101145.75;5226538;28;20536;-79
2023/10/23 01:32:22;;;;;;;6.07;3.70;;;;;;;12.03;100.00;101143.19;5226777;28;20117;-78
2023/10/23 01:34:54;;;;;;;7.87;4.13;;;;;;;12.04;100.00;101152.78;5242608;28;20072;-78
2023/10/23 01:37:25;;;;;;;7.30;4.23;;;;;;;12.05;100.00;101142.16;5226324;28;20038;-78
2023/10/23 01:39:56;;;;;;;8.23;4.30;;;;;;;12.23;100.00;101184.03;5227414;28;20052;-78
2023/10/23 01:42:30;;;;;;;6.27;3.80;;;;;;;12.03;100.00;101133.53;5223809;28;20076;-78
2023/10/23 01:45:03;;;;;;;8.43;4.30;;;;;;;11.94;100.00;101118.34;5225227;28;20033;-78
2023/10/23 01:47:34;;;;;;;6.70;4.43;;;;;;;12.06;100.00;101138.59;5226543;28;20025;-78
2023/10/23 01:50:06;;;;;;;19.13;4.73;;;;;;;12.25;100.00;101169.03;5226587;28;20127;-78
2023/10/23 01:52:39;;;;;;;6.60;3.90;;;;;;;12.12;100.00;101182.03;5227202;28;20026;-78
2023/10/23 01:55:11;;;;;;;5.93;3.57;;;;;;;11.96;100.00;101158.47;5225903;28;20265;-78
2023/10/23 01:57:42;;;;;;;8.27;4.03;;;;;;;11.83;100.00;101146.09;5224231;28;20097;-78
2023/10/23 02:00:13;;;;;;;7.93;3.93;;;;;;;11.80;100.00;101143.66;5226058;28;20325;-78
2023/10/23 02:02:45;;;;;;;7.57;4.43;;;;;;;11.88;100.00;101152.84;5227601;28;20029;-78
2023/10/23 02:05:16;;;;;;;7.53;4.80;;;;;;;11.56;100.00;101120.59;5225764;28;20030;-78
2023/10/23 02:07:47;;;;;;;6.40;4.00;;;;;;;11.61;100.00;101144.75;5227139;28;20055;-78
2023/10/23 02:10:19;;;;;;;6.97;3.87;;;;;;;11.99;100.00;101168.78;5225437;28;20024;-78
2023/10/23 02:12:50;;;;;;;9.03;3.90;;;;;;;11.73;100.00;101140.56;5226507;28;20119;-78
2023/10/23 02:15:22;;;;;;;8.87;3.73;;;;;;;11.79;100.00;101144.59;5242181;28;20029;-79
2023/10/23 02:17:53;;;;;;;10.27;4.07;;;;;;;11.89;100.00;101172.91;5226119;28;20029;-79
2023/10/23 02:20:27;;;;;;;6.93;4.47;;;;;;;11.70;100.00;101160.88;5230559;28;20026;-78
2023/10/23 02:22:58;;;;;;;9.52;4.97;;;;;;;11.74;100.00;101160.63;5229970;28;20501;-78
2023/10/23 02:25:30;;;;;;;10.17;4.10;;;;;;;11.79;100.00;101162.97;5229944;28;20140;-78
2023/10/23 02:28:01;;;;;;;8.90;3.93;;;;;;;11.72;100.00;101182.63;5230217;28;20029;-78
2023/10/23 02:30:35;;;;;;;9.97;3.87;;;;;;;11.85;100.00;101182.75;5229536;28;20113;-79
2023/10/23 02:33:07;;;;;;;6.28;3.88;;;;;;;11.54;100.00;101159.19;5230083;28;20389;-79
2023/10/23 02:35:38;;;;;;;10.53;4.53;;;;;;;11.43;100.00;101157.19;5230206;28;20032;-79
2023/10/23 02:38:10;;;;;;;6.33;4.00;;;;;;;11.56;100.00;101180.91;5230356;28;20381;-79
2023/10/23 02:40:50;;;;;;;5.93;4.20;;;;;;;11.92;100.00;101185.84;5228844;28;20025;-79
2023/10/23 02:43:21;;;;;;;7.73;4.37;;;;;;;11.56;100.00;101162.56;5229660;28;20025;-79
2023/10/23 02:45:53;;;;;;;6.80;4.20;;;;;;;11.53;100.00;101159.25;5230057;28;20056;-79
2023/10/23 02:48:24;;;;;;;7.17;3.80;;;;;;;11.67;100.00;101187.31;5230251;28;20032;-79
2023/10/23 02:50:56;;;;;;;7.57;4.03;;;;;;;11.33;100.00;101151.63;5229946;28;20039;-78
2023/10/23 02:53:29;;;;;;;7.00;4.17;;;;;;;11.31;100.00;101163.97;5230073;28;20134;-78
2023/10/23 02:56:02;;;;;;;7.20;3.97;;;;;;;11.70;100.00;101179.25;5228948;28;20061;-78
2023/10/23 02:58:35;;;;;;;7.10;3.83;;;;;;;11.36;100.00;101155.88;5229580;28;20548;-78
2023/10/23 03:01:33;;;;;;;9.83;4.37;;;;;;;12.08;100.00;101196.25;5229936;28;20029;-78
2023/10/23 03:04:04;;;;;;;8.60;4.03;;;;;;;11.64;100.00;101196.22;5229710;28;20162;-78
2023/10/23 03:06:36;;;;;;;6.93;4.07;;;;;;;11.25;100.00;101148.63;5229176;28;20033;-78
2023/10/23 03:09:07;;;;;;;6.53;4.30;;;;;;;11.36;100.00;101148.00;5229848;28;20025;-78
2023/10/23 03:11:39;;;;;;;10.30;3.90;;;;;;;11.35;100.00;101157.63;5229514;28;20034;-78
2023/10/23 03:14:10;;;;;;;6.33;3.17;;;;;;;11.52;100.00;101176.78;5227036;28;20049;-78
2023/10/23 03:16:42;;;;;;;9.13;3.97;;;;;;;11.32;100.00;101163.06;5245220;28;20646;-78
2023/10/23 03:19:13;;;;;;;5.83;3.90;;;;;;;11.47;100.00;101163.09;5227629;28;20025;-78
2023/10/23 03:21:44;;;;;;;7.20;3.90;;;;;;;11.13;100.00;101155.41;5229649;28;20075;-79
2023/10/23 03:24:16;;;;;;;8.97;4.20;;;;;;;11.15;100.00;101179.78;5229074;28;20321;-79
2023/10/23 03:26:47;;;;;;;7.80;4.30;;;;;;;11.16;100.00;101157.00;5228922;28;20611;-79
2023/10/23 03:29:19;;;;;;;5.73;4.00;;;;;;;11.04;100.00;101146.31;5229002;28;20025;-79
2023/10/23 03:31:50;;;;;;;8.73;4.23;;;;;;;11.18;100.00;101176.13;5228482;28;20053;-79
2023/10/23 03:34:24;;;;;;;10.97;4.53;;;;;;;11.11;100.00;101147.66;5229277;28;20404;-79
2023/10/23 03:36:56;;;;;;;7.40;4.13;;;;;;;11.18;100.00;101184.84;5244174;28;20025;-79
2023/10/23 03:39:27;;;;;;;6.13;3.47;;;;;;;11.04;100.00;101161.19;5228103;28;20028;-79
2023/10/23 03:41:58;;;;;;;6.20;4.23;;;;;;;11.28;100.00;101203.50;5227623;28;20049;-79
2023/10/23 03:44:30;;;;;;;7.53;4.50;;;;;;;11.27;100.00;101212.31;5229415;28;20017;-79
2023/10/23 03:47:01;;;;;;;10.40;4.90;;;;;;;10.94;100.00;101153.00;5228914;28;20584;-79
2023/10/23 03:49:32;;;;;;;10.27;4.40;;;;;;;11.01;100.00;101188.41;5228691;28;20033;-78
2023/10/23 03:52:04;;;;;;;9.70;4.10;;;;;;;10.87;100.00;101161.19;5228895;28;20021;-78
2023/10/23 03:54:37;;;;;;;5.80;3.47;;;;;;;10.96;100.00;101186.03;5228072;28;20100;-78
2023/10/23 03:57:08;;;;;;;6.27;3.73;;;;;;;10.73;100.00;101159.38;5226482;28;20525;-79
2023/10/23 03:59:43;;;;;;;9.20;4.47;;;;;;;11.02;100.00;101184.84;5229116;28;20032;-79
2023/10/23 04:02:14;;;;;;;7.07;3.83;;;;;;;10.81;100.00;101172.03;5228738;28;20087;-79
2023/10/23 04:04:46;;;;;;;8.20;4.13;;;;;;;10.81;100.00;101182.50;5228635;28;20242;-79
2023/10/23 04:07:17;;;;;;;6.80;3.37;;;;;;;10.98;100.00;101209.53;5228769;28;20025;-79
2023/10/23 04:09:48;;;;;;;5.73;3.47;;;;;;;10.67;100.00;101180.63;5228780;28;20025;-79
2023/10/23 04:12:20;;;;;;;8.60;4.03;;;;;;;10.78;100.00;101185.28;5226995;28;20325;-79
2023/10/23 04:14:51;;;;;;;8.77;3.73;;;;;;;10.79;100.00;101184.34;5228663;28;20079;-79
2023/10/23 04:17:22;;;;;;;10.63;3.50;;;;;;;10.99;100.00;101221.72;5227885;28;20232;-78
2023/10/23 04:19:54;;;;;;;4.70;3.70;;;;;;;10.74;100.00;101173.28;5244111;28;20075;-78
2023/10/23 04:22:25;;;;;;;8.37;3.60;;;;;;;10.69;100.00;101183.19;5243294;28;20021;-78
2023/10/23 04:24:57;;;;;;;11.43;3.90;;;;;;;10.65;100.00;101172.03;5225858;28;20021;-78
2023/10/23 04:27:29;;;;;;;6.13;3.67;;;;;;;10.66;100.00;101205.16;5228062;28;20028;-78
2023/10/23 04:30:00;;;;;;;7.27;3.60;;;;;;;10.73;100.00;101203.03;5227125;28;20021;-78
2023/10/23 04:32:32;;;;;;;8.53;4.03;;;;;;;10.62;100.00;101182.66;5228913;28;20032;-78
2023/10/23 04:35:04;;;;;;;6.87;3.40;;;;;;;10.63;100.00;101185.19;5227936;28;20294;-78
2023/10/23 04:37:35;;;;;;;7.27;4.30;;;;;;;10.84;100.00;101233.91;5228142;28;20511;-79
2023/10/23 04:40:07;;;;;;;8.03;3.80;;;;;;;10.42;100.00;101187.16;5227429;28;20156;-79
2023/10/23 04:42:39;;;;;;;5.83;3.73;;;;;;;10.33;100.00;101178.06;5225115;28;20025;-79
2023/10/23 04:45:10;;;;;;;8.10;3.37;;;;;;;10.70;100.00;101198.81;5227313;28;20370;-79
2023/10/23 04:47:41;;;;;;;9.33;4.97;;;;;;;10.37;100.00;101169.09;5228056;28;20044;-79
2023/10/23 04:50:13;;;;;;;9.47;3.53;;;;;;;10.29;100.00;101176.53;5226877;28;20108;-78
2023/10/23 04:52:44;;;;;;;8.57;3.80;;;;;;;10.44;100.00;101166.16;5242674;28;20025;-79
2023/10/23 04:55:15;;;;;;;7.60;3.60;;;;;;;10.43;100.00;101178.41;5226851;28;20098;-79
2023/10/23 04:57:47;;;;;;;7.90;4.13;;;;;;;10.51;100.00;101184.09;5225980;28;20562;-79
2023/10/23 05:00:19;;;;;;;7.27;3.37;;;;;;;10.28;100.00;101159.13;5227180;28;20117;-79
2023/10/23 05:02:50;;;;;;;9.80;4.20;;;;;;;10.34;100.00;101171.03;5227308;28;20582;-79
2023/10/23 05:05:22;;;;;;;13.73;5.70;;;;;;;10.50;100.00;101200.75;5227103;28;20053;-79
2023/10/23 05:07:53;;;;;;;10.23;3.97;;;;;;;10.40;100.00;101165.50;5227938;28;20025;-79
2023/10/23 05:10:25;;;;;;;6.33;3.40;;;;;;;10.29;100.00;101158.19;5225281;28;20036;-79
2023/10/23 05:12:56;;;;;;;7.67;4.10;;;;;;;10.44;100.00;101174.03;5228020;28;20076;-79
2023/10/23 05:15:28;;;;;;;7.87;3.73;;;;;;;10.38;100.00;101183.03;5225892;28;20025;-79
2023/10/23 05:17:59;;;;;;;8.00;3.90;;;;;;;10.40;100.00;101178.56;5226567;28;20033;-78
2023/10/23 05:20:33;;;;;;;7.97;3.60;;;;;;;10.49;100.00;101179.88;5227946;28;20497;-79
2023/10/23 05:23:05;;;;;;;7.07;3.45;;;;;;;10.32;100.00;101152.78;5228301;28;20057;-78
2023/10/23 05:25:36;;;;;;;6.47;3.47;;;;;;;10.25;100.00;101172.38;5237736;28;20072;-78
2023/10/23 05:28:07;;;;;;;6.43;3.00;;;;;;;10.32;100.00;101188.59;5253050;28;20367;-78
2023/10/23 05:30:39;;;;;;;9.93;4.10;;;;;;;10.63;100.00;101216.63;5237707;28;20040;-78
2023/10/23 05:33:10;;;;;;;10.67;3.83;;;;;;;10.31;100.00;101174.69;5251806;28;20229;-78
2023/10/23 05:35:41;;;;;;;6.43;3.53;;;;;;;10.38;100.00;101178.66;5236268;28;20080;-78
2023/10/23 05:38:13;;;;;;;9.43;3.23;;;;;;;10.33;100.00;101179.84;5229142;28;20100;-78
2023/10/23 05:40:44;;;;;;;6.73;3.40;;;;;;;10.32;100.00;101150.19;5223135;28;20139;-78
2023/10/23 05:43:17;;;;;;;6.83;3.10;;;;;;;10.23;100.00;101163.75;5227945;28;20033;-78
2023/10/23 05:45:48;;;;;;;10.40;3.23;;;;;;;10.36;100.00;101183.13;5227211;28;20558;-78
2023/10/23 05:48:20;;;;;;;8.70;3.50;;;;;;;10.42;100.00;101210.75;5242401;28;20029;-78
2023/10/23 05:51:03;;;;;;;8.97;3.50;;;;;;;10.47;100.00;101184.31;5241715;28;20025;-78
2023/10/23 05:53:34;;;;;;;11.73;4.33;;;;;;;10.30;100.00;101183.44;5226888;28;20074;-78
2023/10/23 05:56:06;;;;;;;9.50;3.60;;;;;;;10.31;100.00;101216.56;5229638;28;20051;-78
2023/10/23 05:58:38;;;;;;;7.20;3.80;;;;;;;10.17;100.00;101199.78;5230963;28;20029;-78
2023/10/23 06:01:10;;;;;;;11.13;3.97;;;;;;;10.07;100.00;101156.72;5246166;28;20021;-78
2023/10/23 06:03:41;;;;;;;16.63;4.43;;;;;;;10.33;100.00;101183.31;5230451;28;20500;-79
2023/10/23 06:06:13;;;;;;;12.70;3.73;;;;;;;10.31;100.00;101176.44;5231347;28;20523;-79
2023/10/23 06:08:44;;;;;;;7.37;3.70;;;;;;;10.30;100.00;101191.28;5230381;28;20021;-79
2023/10/23 06:11:16;;;;;;;7.57;3.40;;;;;;;10.09;100.00;101161.88;5245358;28;20214;-79
2023/10/23 06:13:47;;;;;;;8.87;4.27;;;;;;;10.37;100.00;101194.44;5230851;28;20049;-79
2023/10/23 06:16:18;;;;;;;8.63;3.80;;;;;;;10.13;100.00;101174.72;5229748;28;20017;-79
2023/10/23 06:18:50;;;;;;;8.83;3.43;;;;;;;10.23;100.00;101188.16;5231269;28;20029;-78
2023/10/23 06:21:21;;;;;;;7.83;3.70;;;;;;;10.06;100.00;101165.50;5229837;28;20021;-79
2023/10/23 06:23:52;;;;;;;13.47;4.70;;;;;;;10.04;100.00;101167.34;5230702;28;20032;-79
2023/10/23 06:26:24;;;;;;;8.23;4.07;;;;;;;10.21;100.00;101205.72;5229519;28;20560;-79
2023/10/23 06:28:56;;;;;;;10.47;3.90;;;;;;;10.09;100.00;101178.41;5230854;28;20021;-79
2023/10/23 06:31:27;;;;;;;7.97;3.67;;;;;;;10.03;100.00;101177.00;5230319;28;20025;-79
2023/10/23 06:33:58;;;;;;;10.17;4.10;;;;;;;10.11;100.00;101178.34;5228018;28;20032;-79
2023/10/23 06:36:32;;;;;;;7.63;4.00;;;;;;;10.21;100.00;101194.41;5229045;28;20080;-79
2023/10/23 06:39:03;;;;;;;12.57;3.83;;;;;;;10.32;100.00;101192.06;5228321;28;20029;-79
2023/10/23 06:41:35;;;;;;;9.83;3.67;;;;;;;10.02;100.00;101179.66;5229767;28;20036;-79
2023/10/23 06:44:06;;;;;;;6.57;3.67;;;;;;;9.96;100.00;101177.38;5229142;28;20104;-79
2023/10/23 06:46:37;;;;;;;6.67;3.70;;;;;;;9.94;100.00;101159.13;5230703;28;20505;-79
2023/10/23 06:49:09;;;;;;;5.37;3.43;;;;;;;10.16;100.00;101192.88;5230094;28;20021;-79
2023/10/23 06:51:41;;;;;;;9.70;4.60;;;;;;;10.26;100.00;101182.75;5230028;28;20314;-79
2023/10/23 06:54:12;;;;;;;5.80;3.40;;;;;;;10.45;100.00;101212.38;5230062;28;20038;-79
2023/10/23 06:56:44;;;;;;;5.37;3.53;;;;;;;10.48;100.00;101201.75;5226876;28;20774;-79
2023/10/23 06:59:15;;;;;;;7.30;4.13;;;;;;;10.22;100.00;101172.53;5230146;28;20091;-79
2023/10/23 07:01:47;;;;;;;7.30;3.90;;;;;;;10.26;100.00;101171.47;5229893;28;20029;-79
2023/10/23 07:04:19;;;;;;;7.83;4.20;;;;;;;10.17;100.00;101173.63;5229366;28;20033;-79
2023/10/23 07:06:50;;;;;;;7.67;3.93;;;;;;;10.41;100.00;101175.88;5229143;28;20056;-79
2023/10/23 07:09:21;;;;;;;8.23;4.30;;;;;;;10.33;100.00;101167.59;5229096;28;20032;-79
2023/10/23 07:11:53;;;;;;;8.27;4.33;;;;;;;10.61;100.00;101215.88;5228667;28;20037;-79
2023/10/23 07:14:24;;;;;;;8.40;4.30;;;;;;;10.65;100.00;101213.94;5228900;28;20068;-79
2023/10/23 07:16:56;;;;;;;11.33;4.80;;;;;;;10.49;100.00;101164.19;5229595;28;20059;-79
2023/10/23 07:19:27;;;;;;;10.03;5.37;;;;;;;10.79;100.00;101205.31;5229236;28;20060;-79
2023/10/23 07:21:58;;;;;;;8.90;3.90;;;;;;;10.56;100.00;101155.03;5227668;28;20376;-79
2023/10/23 07:24:30;;;;;;;8.93;4.43;;;;;;;10.78;100.00;101164.34;5228883;28;20053;-79
2023/10/23 07:27:01;;;;;;;7.83;4.97;;;;;;;10.90;100.00;101186.38;5228884;28;20080;-79
2023/10/23 07:29:32;;;;;;;8.23;4.83;;;;;;;10.95;100.00;101189.59;5229373;28;20025;-79
2023/10/23 07:32:04;;;;;;;9.43;4.97;;;;;;;10.85;100.00;101173.56;5228859;28;20357;-79
2023/10/23 07:34:35;;;;;;;9.00;5.07;;;;;;;10.96;100.00;101188.66;5229799;28;20033;-79
2023/10/23 07:37:07;;;;;;;7.47;4.33;;;;;;;10.86;100.00;101172.63;5228028;28;20725;-79
2023/10/23 07:39:38;;;;;;;9.30;4.73;;;;;;;11.00;100.00;101184.94;5229051;28;20116;-79
2023/10/23 07:42:09;;;;;;;10.67;5.10;;;;;;;10.89;100.00;101169.81;5227532;28;20025;-78
2023/10/23 07:44:42;;;;;;;9.67;5.47;;;;;;;10.93;100.00;101170.50;5228983;28;20025;-78
2023/10/23 07:47:13;;;;;;;9.80;4.90;;;;;;;11.09;100.00;101183.56;5227864;28;20044;-78
2023/10/23 07:49:45;;;;;;;11.67;6.43;;;;;;;11.40;100.00;101229.97;5228567;28;20457;-78
2023/10/23 07:52:16;;;;;;;8.97;4.80;;;;;;;11.31;100.00;101192.00;5244407;28;20026;-79
2023/10/23 07:54:47;;;;;;;14.33;6.37;;;;;;;11.48;100.00;101217.25;5243346;28;20385;-79
2023/10/23 07:57:19;;;;;;;7.57;4.60;;;;;;;11.41;100.00;101189.69;5228797;28;20136;-79
2023/10/23 07:59:50;;;;;;;11.73;5.53;;;;;;;11.37;100.00;101187.25;5244568;28;20128;-79
2023/10/23 08:02:21;;;;;;;12.77;5.30;;;;;;;11.50;100.00;101182.13;5228114;28;20049;-78
2023/10/23 08:04:53;;;;;;;11.10;5.70;;;;;;;11.55;100.00;101168.75;5229166;28;20033;-79
2023/10/23 08:07:24;;;;;;;9.23;5.40;;;;;;;11.75;100.00;101192.94;5228443;28;20120;-79
2023/10/23 08:09:55;;;;;;;13.13;4.93;;;;;;;11.74;100.00;101175.53;5227769;28;20257;-79
2023/10/23 08:12:29;;;;;;;9.57;5.83;;;;;;;11.97;100.00;101178.56;5227018;28;20660;-79
2023/10/23 08:15:02;;;;;;;9.88;4.82;;;;;;;11.92;100.00;101157.81;5227460;28;20114;-79
2023/10/23 08:17:33;;;;;;;14.70;6.23;;;;;;;12.17;100.00;101197.50;5226780;28;20086;-79
2023/10/23 08:20:05;;;;;;;11.43;5.60;;;;;;;12.19;100.00;101182.50;5227872;28;20337;-79
2023/10/23 08:22:37;;;;;;;7.77;5.17;;;;;;;12.25;100.00;101174.28;5228631;28;20100;-79
2023/10/23 08:25:08;;;;;;;13.00;6.30;;;;;;;12.17;100.00;101147.63;5226676;28;20021;-79
2023/10/23 08:27:40;;;;;;;13.73;5.90;;;;;;;12.57;100.00;101216.06;5228982;28;20543;-79
2023/10/23 08:30:12;;;;;;;9.33;6.30;;;;;;;12.52;100.00;101194.50;5228073;28;20181;-79
2023/10/23 08:32:43;;;;;;;10.50;5.20;;;;;;;12.54;100.00;101190.00;5228285;28;20052;-79
2023/10/23 08:35:15;;;;;;;11.90;5.20;;;;;;;12.65;100.00;101212.13;5226868;28;20025;-79
2023/10/23 08:37:46;;;;;;;9.10;5.50;;;;;;;12.82;100.00;101216.31;5227099;28;20021;-79
2023/10/23 08:40:18;;;;;;;10.40;5.40;;;;;;;12.89;100.00;101208.88;5227154;28;20409;-79
2023/10/23 08:42:49;;;;;;;9.37;5.13;;;;;;;12.89;100.00;101199.19;5227648;28;20033;-79
2023/10/23 08:45:21;;;;;;;13.30;5.60;;;;;;;13.22;100.00;101226.03;5225963;28;20042;-79
2023/10/23 08:47:52;;;;;;;12.30;6.13;;;;;;;13.01;100.00;101179.16;5227318;28;20039;-79
2023/10/23 08:50:24;;;;;;;12.20;5.70;;;;;;;13.28;100.00;101180.91;5226727;28;20535;-79
2023/10/23 08:52:59;;;;;;;10.27;4.93;;;;;;;13.41;100.00;101173.06;5227839;28;20029;-79
2023/10/23 08:55:31;;;;;;;10.52;4.78;;;;;;;13.64;100.00;101177.75;5226998;28;20488;-79
2023/10/23 08:58:05;;;;;;;10.33;4.50;;;;;;;13.96;100.00;101166.81;5226016;28;20464;-79
2023/10/23 09:00:36;;;;;;;10.53;4.93;;;;;;;14.63;100.00;101179.72;5226930;28;20017;-79
2023/10/23 09:03:09;;;;;;;13.13;4.90;;;;;;;15.37;100.00;101162.13;5225943;28;20402;-79
2023/10/23 09:05:41;;;;;;;9.10;4.33;;;;;;;15.69;100.00;101155.34;5227438;28;20028;-79
2023/10/23 09:08:12;;;;;;;9.20;3.57;;;;;;;16.22;100.00;101167.16;5226766;28;20026;-79
2023/10/23 09:11:02;;;;;;;14.20;4.43;;;;;;;16.69;100.00;101143.16;5227234;28;20033;-79
2023/10/23 09:13:37;;;;;;;5.53;3.47;;;;;;;16.48;100.00;101166.06;5227537;28;20053;-79
2023/10/23 09:16:10;;;;;;;8.55;3.47;;;;;;;17.01;100.00;101162.66;5226435;28;20170;-79
2023/10/23 09:18:46;;;;;;;8.97;3.57;;;;;;;17.18;100.00;101178.94;5227677;28;20029;-79
2023/10/23 09:21:19;;;;;;;10.77;3.30;;;;;;;17.08;100.00;101162.13;5227117;28;20453;-79
2023/10/23 09:23:54;;;;;;;13.80;3.83;;;;;;;17.41;100.00;101184.97;5227329;28;20029;-80
2023/10/23 09:26:26;;;;;;;7.60;3.60;;;;;;;17.44;100.00;101153.94;5223828;28;20043;-80
2023/10/23 09:28:57;;;;;;;8.00;3.70;;;;;;;17.65;100.00;101154.72;5227274;28;20450;-80
2023/10/23 09:31:29;;;;;;;11.17;3.90;;;;;;;17.76;100.00;101156.47;5225360;28;20144;-80
2023/10/23 09:34:00;;;;;;;12.37;3.83;;;;;;;17.57;100.00;101161.66;5226234;28;20040;-80
2023/10/23 09:36:33;;;;;;;11.03;3.80;;;;;;;17.99;100.00;101164.25;5227608;28;20025;-80
2023/10/23 09:39:06;;;;;;;10.83;3.87;;;;;;;17.94;100.00;101152.34;5225463;28;20036;-79
2023/10/23 09:41:37;;;;;;;12.30;4.60;;;;;;;17.49;100.00;101141.13;5227146;28;20018;-79
2023/10/23 09:44:10;;;;;;;11.47;4.10;;;;;;;17.12;100.00;101137.94;5226598;28;20031;-80
2023/10/23 09:46:42;;;;;;;10.73;3.97;;;;;;;17.38;100.00;101164.06;5226922;28;20025;-80
2023/10/23 09:49:15;;;;;;;8.73;3.07;;;;;;;16.88;100.00;101130.22;5225757;28;20030;-79
2023/10/23 09:51:48;;;;;;;10.50;3.40;;;;;;;16.85;100.00;101156.91;5226852;28;20116;-79
2023/10/23 09:54:19;;;;;;;10.17;4.10;;;;;;;16.84;100.00;101145.53;5225099;28;20040;-80
2023/10/23 09:56:54;;;;;;;9.60;3.17;;;;;;;16.97;100.00;101173.59;5226895;28;20025;-80
2023/10/23 09:59:33;;;;;;;11.07;3.27;;;;;;;16.62;100.00;101167.56;5227002;28;20409;-80
2023/10/23 10:02:08;;;;;;;9.67;3.40;;;;;;;16.33;100.00;101153.09;5226232;28;20119;-80
2023/10/23 10:04:56;;;;;;;11.73;4.07;;;;;;;16.73;100.00;101164.91;5227295;28;20376;-80
2023/10/23 10:07:49;;;;;;;8.20;3.67;;;;;;;16.50;100.00;101149.09;5226205;28;20230;-80
2023/10/23 10:10:22;;;;;;;14.37;3.87;;;;;;;16.20;100.00;101151.41;5225538;28;20673;-80
2023/10/23 10:12:55;;;;;;;11.50;3.40;;;;;;;16.09;100.00;101115.28;5241762;28;20107;-80
2023/10/23 10:15:27;;;;;;;9.77;4.30;;;;;;;16.08;100.00;101147.09;5224349;28;20053;-80
2023/10/23 10:17:58;;;;;;;13.73;4.13;;;;;;;15.90;100.00;101122.97;5226560;28;20036;-80
2023/10/23 10:20:30;;;;;;;13.07;4.03;;;;;;;15.75;100.00;101117.91;5225873;28;20473;-80
2023/10/23 10:23:07;;;;;;;8.80;3.33;;;;;;;16.27;100.00;101149.13;5226562;28;20025;-79
2023/10/23 10:25:40;;;;;;;11.43;4.33;;;;;;;16.03;100.00;101128.97;5224901;28;20579;-79
2023/10/23 10:28:12;;;;;;;11.37;3.87;;;;;;;16.27;100.00;101143.84;5236537;28;20021;-79
2023/10/23 10:30:46;;;;;;;15.47;5.03;;;;;;;16.08;100.00;101141.81;5236628;28;20374;-79
2023/10/23 10:33:26;;;;;;;14.75;4.55;;;;;;;16.24;100.00;101130.88;5236914;28;20535;-79
2023/10/23 10:35:58;;;;;;;14.00;4.80;;;;;;;16.08;100.00;101144.47;5236974;28;20030;-79
2023/10/23 10:38:32;;;;;;;11.37;3.93;;;;;;;16.01;100.00;101107.13;5235594;28;20026;-79
2023/10/23 10:41:13;;;;;;;14.15;5.10;;;;;;;16.28;100.00;101126.19;5232241;28;20071;-79
2023/10/23 10:43:52;;;;;;;18.70;4.70;;;;;;;16.33;100.00;101121.38;5230950;28;20026;-79
2023/10/23 10:46:25;;;;;;;11.90;4.40;;;;;;;16.11;100.00;101109.88;5229960;28;20037;-80
2023/10/23 10:48:57;;;;;;;16.93;5.27;;;;;;;16.03;100.00;101068.22;5227969;28;20025;-80
2023/10/23 10:51:29;;;;;;;11.17;4.20;;;;;;;16.44;100.00;101116.06;5230302;28;20393;-79
2023/10/23 10:54:09;;;;;;;15.83;5.40;;;;;;;16.43;100.00;101079.16;5227287;28;20155;-79
2023/10/23 10:56:41;;;;;;;12.87;4.47;;;;;;;16.39;100.00;101083.88;5230780;28;20439;-79
2023/10/23 10:59:12;;;;;;;15.27;4.63;;;;;;;16.47;100.00;101104.41;5229259;28;20037;-79
2023/10/23 11:01:44;;;;;;;12.37;4.90;;;;;;;16.02;100.00;101036.66;5230347;28;20083;-80
2023/10/23 11:04:15;;;;;;;11.47;3.87;;;;;;;16.21;100.00;101039.47;5229081;28;20071;-79
2023/10/23 11:06:46;;;;;;;8.53;3.23;;;;;;;16.24;100.00;101048.09;5230265;28;20495;-79
2023/10/23 11:09:19;;;;;;;10.50;4.47;;;;;;;16.29;100.00;101067.94;5229013;28;20025;-79
2023/10/23 11:11:50;;;;;;;14.90;4.33;;;;;;;16.31;100.00;101052.78;5244153;28;20033;-79
2023/10/23 11:14:24;;;;;;;14.97;4.73;;;;;;;16.41;100.00;101044.09;5229270;28;20037;-79
2023/10/23 11:16:55;;;;;;;14.82;4.25;;;;;;;16.49;100.00;101056.69;5230303;28;20025;-79
2023/10/23 11:19:27;;;;;;;14.80;4.20;;;;;;;16.52;100.00;101049.34;5228940;28;20048;-79
2023/10/23 11:22:10;;;;;;;12.07;4.00;;;;;;;16.46;100.00;101002.25;5243741;28;20436;-78
2023/10/23 11:24:42;;;;;;;10.70;4.17;;;;;;;16.58;100.00;101058.59;5227486;28;20021;-79
2023/10/23 11:27:13;;;;;;;15.77;4.70;;;;;;;16.35;100.00;101016.38;5228968;28;20064;-79
2023/10/23 11:29:46;;;;;;;16.00;3.97;;;;;;;16.55;100.00;101027.09;5245004;28;20358;-79
2023/10/23 11:32:18;;;;;;;11.60;3.80;;;;;;;16.21;100.00;100988.44;5229042;28;20091;-79
2023/10/23 11:34:50;;;;;;;13.00;4.70;;;;;;;16.45;100.00;101003.22;5229711;28;20033;-79
2023/10/23 11:37:21;;;;;;;15.57;4.17;;;;;;;16.59;100.00;101015.31;5228978;28;20131;-79